createdAt,value
2023-01-13T13:11:57.893Z,59.16
2023-01-13T13:14:43.734Z,58.71
2023-01-13T13:17:29.267Z,58.95
2023-01-13T13:20:53.889Z,58.81
2023-01-13T13:24:10.275Z,59.00
2023-01-13T13:26:56.103Z,58.75
2023-01-13T13:29:58.355Z,58.58
2023-01-13T13:33:10.761Z,58.43
2023-01-13T13:36:07.216Z,58.63
2023-01-13T13:39:34.224Z,58.40
2023-01-13T13:42:55.407Z,59.66
2023-01-13T13:46:09.733Z,58.38
2023-01-13T13:48:55.275Z,58.24
2023-01-13T13:51:52.514Z,58.98
2023-01-13T13:54:40.993Z,59.15
2023-01-13T13:57:39.820Z,59.46
2023-01-13T14:00:35.714Z,59.64
2023-01-13T14:03:32.534Z,58.80
2023-01-13T14:06:24.292Z,58.98
2023-01-13T14:09:17.161Z,59.54
2023-01-13T14:12:06.719Z,59.16
2023-01-13T14:14:54.178Z,59.19
2023-01-13T14:17:39.621Z,58.84
2023-01-13T14:20:24.950Z,59.06
2023-01-13T14:23:18.199Z,58.29
2023-01-13T14:26:12.816Z,58.21
2023-01-13T14:29:00.922Z,58.27
2023-01-13T14:31:47.219Z,57.99
2023-01-13T14:34:34.311Z,57.26
2023-01-13T14:37:25.078Z,57.79
2023-01-13T14:40:36.198Z,57.65
2023-01-13T14:43:24.751Z,57.10
2023-01-13T14:46:11.872Z,56.97
2023-01-13T14:49:01.284Z,56.15
2023-01-13T14:51:46.590Z,56.16
2023-01-13T14:54:41.215Z,55.86
2023-01-13T14:57:34.844Z,56.43
2023-01-13T15:00:25.534Z,56.78
2023-01-13T15:03:15.418Z,56.81
2023-01-13T15:06:01.452Z,57.49
2023-01-13T15:08:46.934Z,56.80
2023-01-13T15:11:32.190Z,56.84
2023-01-13T15:14:24.238Z,56.93
2023-01-13T15:17:16.706Z,57.14
2023-01-13T15:20:03.121Z,57.12
2023-01-13T15:22:49.449Z,57.43
2023-01-13T15:25:37.779Z,57.16
2023-01-13T15:28:27.022Z,57.73
2023-01-13T15:31:12.552Z,58.08
2023-01-13T15:33:58.819Z,58.10
2023-01-13T15:36:44.549Z,57.88
2023-01-13T15:39:29.873Z,58.21
2023-01-13T15:42:33.675Z,58.06
2023-01-13T15:45:37.462Z,57.97
2023-01-13T15:48:24.669Z,58.04
2023-01-13T15:51:13.192Z,58.27
2023-01-13T15:54:02.405Z,58.29
2023-01-13T15:56:47.560Z,57.69
2023-01-13T15:59:33.786Z,58.20
2023-01-13T16:02:19.213Z,58.10
2023-01-13T16:05:05.930Z,58.16
2023-01-13T16:07:51.241Z,58.09
2023-01-13T16:10:36.368Z,57.67
2023-01-13T16:13:21.982Z,58.00
2023-01-13T16:16:26.789Z,58.35
2023-01-13T16:19:12.702Z,58.02
2023-01-13T16:21:59.756Z,58.43
2023-01-13T16:24:44.873Z,58.46
2023-01-13T16:27:30.133Z,58.40
2023-01-13T16:30:24.528Z,58.39
2023-01-13T16:33:09.970Z,58.37
2023-01-13T16:36:11.750Z,57.97
2023-01-13T16:38:58.255Z,57.98
2023-01-13T16:41:43.675Z,57.14
2023-01-13T16:44:29.157Z,58.65
2023-01-13T16:47:16.753Z,59.08
2023-01-13T16:50:02.931Z,60.76
2023-01-13T16:52:48.321Z,60.86
2023-01-13T16:55:33.782Z,62.89
2023-01-13T16:58:20.637Z,62.29
2023-01-13T17:01:06.190Z,62.60
2023-01-13T17:03:51.943Z,62.90
2023-01-13T17:06:52.328Z,62.84
2023-01-13T17:09:37.804Z,63.54
2023-01-13T17:12:23.237Z,63.49
2023-01-13T17:15:12.355Z,63.22
2023-01-13T17:17:57.627Z,63.08
2023-01-13T17:20:42.881Z,64.35
2023-01-13T17:23:29.735Z,65.91
2023-01-13T17:26:43.892Z,66.51
2023-01-13T17:29:29.443Z,66.73
2023-01-13T17:32:18.511Z,66.78
2023-01-13T17:35:04.060Z,67.43
2023-01-13T17:37:49.355Z,67.77
2023-01-13T17:40:36.638Z,68.30
2023-01-13T17:43:21.688Z,68.59
2023-01-13T17:46:12.471Z,68.72
2023-01-13T17:48:57.812Z,68.33
2023-01-13T17:51:50.996Z,68.04
2023-01-13T17:54:36.634Z,67.53
2023-01-13T17:57:21.932Z,67.44
2023-01-13T18:00:07.986Z,67.75
2023-01-13T18:02:57.768Z,67.36
2023-01-13T18:05:44.172Z,67.56
2023-01-13T18:08:29.606Z,67.34
2023-01-13T18:11:18.868Z,67.69
2023-01-13T18:14:06.436Z,67.76
2023-01-13T18:16:52.512Z,67.24
2023-01-13T18:19:56.361Z,66.96
2023-01-13T18:23:00.088Z,66.18
2023-01-13T18:26:04.966Z,66.52
2023-01-13T18:28:53.081Z,66.10
2023-01-13T18:31:38.602Z,66.06
2023-01-13T18:34:23.720Z,66.60
2023-01-13T18:37:10.738Z,66.35
2023-01-13T18:39:56.154Z,65.88
2023-01-13T18:42:51.363Z,65.45
2023-01-13T18:45:37.221Z,65.54
2023-01-13T18:48:22.459Z,65.72
2023-01-13T18:51:07.843Z,65.47
2023-01-13T18:53:53.892Z,65.46
2023-01-13T18:56:39.185Z,64.89
2023-01-13T18:59:25.046Z,65.08
2023-01-13T19:02:15.903Z,65.26
2023-01-13T19:05:01.262Z,64.55
2023-01-13T19:07:50.822Z,64.68
2023-01-13T19:10:37.421Z,65.00
2023-01-13T19:13:22.807Z,64.92
2023-01-13T19:16:09.017Z,64.85
2023-01-13T19:18:54.693Z,64.88
2023-01-13T19:21:40.526Z,64.75
2023-01-13T19:24:26.063Z,64.98
2023-01-13T19:27:14.419Z,64.68
2023-01-13T19:30:10.796Z,64.92
2023-01-13T19:32:56.193Z,64.79
2023-01-13T19:35:44.604Z,64.94
2023-01-13T19:38:31.548Z,64.60
2023-01-13T19:41:38.068Z,64.53
2023-01-13T19:44:43.466Z,64.81
2023-01-13T19:47:29.102Z,64.50
2023-01-13T19:50:14.793Z,64.61
2023-01-13T19:53:00.046Z,65.18
2023-01-13T19:55:48.364Z,64.84
2023-01-13T19:58:33.892Z,65.41
2023-01-13T20:01:19.321Z,65.25
